Time;durP1;ratioP1;P1;durP2;ratioP2;P2;SDS_P1;SDS_P2;PMS_P1;PMS_P2;Temp;Humidity;BMP_temperature;BMP_pressure;BME280_temperature;BME280_humidity;BME280_pressure;Samples;Min_cycle;Max_cycle;Signal;HPM_P1;HPM_P2
2023/03/07 00:02:23;;;;;;;22.48;12.98;;;3.60;99.90;;;;;;5095515;28;20039;-57
2023/03/07 00:04:48;;;;;;;22.88;13.30;;;3.80;99.90;;;;;;5095620;28;20393;-57
2023/03/07 00:07:14;;;;;;;20.23;13.10;;;3.70;99.90;;;;;;5095104;28;20420;-57
2023/03/07 00:09:41;;;;;;;19.40;11.70;;;3.90;99.90;;;;;;5095375;28;20062;-57
2023/03/07 00:12:07;;;;;;;20.70;10.35;;;3.90;99.90;;;;;;5095110;28;20072;-57
2023/03/07 00:14:33;;;;;;;21.85;9.35;;;3.60;99.90;;;;;;5095274;28;20043;-57
2023/03/07 00:16:59;;;;;;;13.00;7.10;;;3.80;99.90;;;;;;5095257;28;20032;-57
2023/03/07 00:19:25;;;;;;;15.18;7.32;;;3.70;99.90;;;;;;5093768;28;20090;-58
2023/03/07 00:21:50;;;;;;;10.73;5.63;;;4.00;99.90;;;;;;5094776;28;20036;-57
2023/03/07 00:24:16;;;;;;;12.15;6.22;;;3.90;99.90;;;;;;5094905;28;20058;-57
2023/03/07 00:26:41;;;;;;;11.27;5.10;;;4.00;99.90;;;;;;5094915;28;20090;-57
2023/03/07 00:29:08;;;;;;;12.93;4.63;;;3.70;99.90;;;;;;5094894;28;20116;-57
2023/03/07 00:31:34;;;;;;;12.35;4.25;;;3.70;99.90;;;;;;5094845;28;20089;-57
2023/03/07 00:34:00;;;;;;;13.80;4.85;;;4.00;99.90;;;;;;5094756;28;20396;-58
2023/03/07 00:36:26;;;;;;;11.13;4.45;;;3.80;99.90;;;;;;5093500;28;20040;-57
2023/03/07 00:38:52;;;;;;;11.30;4.85;;;3.70;99.90;;;;;;5095073;28;20044;-57
2023/03/07 00:41:20;;;;;;;9.32;4.45;;;3.70;99.90;;;;;;5095106;28;20899;-57
2023/03/07 00:43:46;;;;;;;13.80;5.43;;;3.60;99.90;;;;;;5094945;28;20036;-57
2023/03/07 00:46:14;;;;;;;12.68;5.10;;;3.60;99.90;;;;;;5094291;28;20567;-57
2023/03/07 00:48:40;;;;;;;11.50;4.13;;;3.70;99.90;;;;;;5094606;28;20621;-57
2023/03/07 00:51:09;;;;;;;13.20;4.38;;;3.80;99.90;;;;;;5094619;28;20044;-57
2023/03/07 00:53:35;;;;;;;13.65;4.35;;;4.00;99.90;;;;;;5094484;28;20043;-57
2023/03/07 00:56:04;;;;;;;15.65;4.20;;;3.70;99.90;;;;;;5094716;28;20036;-57
2023/03/07 00:58:33;;;;;;;13.10;3.83;;;3.80;99.90;;;;;;5094372;28;20028;-57
2023/03/07 01:00:59;;;;;;;10.63;3.67;;;4.00;99.90;;;;;;5094442;28;20044;-57
2023/03/07 01:03:25;;;;;;;7.55;3.00;;;4.10;99.90;;;;;;5094066;28;20401;-57
2023/03/07 01:05:51;;;;;;;10.43;3.08;;;3.80;99.90;;;;;;5093223;28;20096;-57
2023/03/07 01:08:18;;;;;;;14.50;3.33;;;3.80;99.90;;;;;;5094461;28;20040;-57
2023/03/07 01:10:44;;;;;;;14.05;2.22;;;4.00;99.90;;;;;;5094173;28;20036;-58
2023/03/07 01:13:11;;;;;;;11.82;3.13;;;4.10;99.90;;;;;;5092585;28;20056;-57
2023/03/07 01:15:37;;;;;;;9.88;2.20;;;4.10;99.90;;;;;;5094332;28;20040;-57
2023/03/07 01:18:05;;;;;;;9.73;2.28;;;3.90;99.90;;;;;;5094543;28;20068;-57
2023/03/07 01:20:32;;;;;;;12.05;2.08;;;4.10;99.90;;;;;;5094164;28;20040;-57
2023/03/07 01:22:58;;;;;;;13.88;2.03;;;4.10;99.90;;;;;;5094250;28;20055;-57
2023/03/07 01:25:23;;;;;;;10.48;2.40;;;4.10;99.90;;;;;;5094137;28;20457;-57
2023/03/07 01:27:51;;;;;;;11.93;2.33;;;4.20;99.90;;;;;;5093732;28;20040;-57
2023/03/07 01:30:17;;;;;;;10.23;2.03;;;4.10;99.90;;;;;;5093764;28;20115;-57
2023/03/07 01:32:43;;;;;;;8.63;1.30;;;4.10;99.90;;;;;;5092300;28;20043;-57
2023/03/07 01:35:09;;;;;;;15.55;1.98;;;4.10;99.90;;;;;;5093740;28;20369;-57
2023/03/07 01:37:34;;;;;;;19.48;2.80;;;4.20;99.90;;;;;;5093633;28;20032;-58
2023/03/07 01:40:00;;;;;;;12.57;2.13;;;4.10;99.90;;;;;;5092397;28;20377;-57
2023/03/07 01:42:30;;;;;;;17.60;2.45;;;4.00;99.90;;;;;;5093554;28;20039;-57
2023/03/07 01:45:01;;;;;;;15.82;2.83;;;4.10;99.90;;;;;;5093434;28;20040;-57
2023/03/07 01:47:27;;;;;;;10.43;1.52;;;4.00;99.90;;;;;;5093487;28;20078;-57
2023/03/07 01:49:53;;;;;;;17.67;2.05;;;4.10;99.90;;;;;;5093492;28;20044;-57
2023/03/07 01:52:24;;;;;;;13.32;2.88;;;4.00;99.90;;;;;;5093252;28;20043;-57
2023/03/07 01:54:57;;;;;;;15.70;2.13;;;4.00;99.90;;;;;;5093287;28;20047;-57
2023/03/07 01:57:30;;;;;;;11.32;1.70;;;3.90;99.90;;;;;;5092208;28;20189;-57
2023/03/07 01:59:58;;;;;;;18.75;2.45;;;3.80;99.90;;;;;;5091965;28;20079;-57
2023/03/07 02:02:25;;;;;;;10.20;2.22;;;3.80;99.90;;;;;;5093280;28;20047;-57
2023/03/07 02:04:56;;;;;;;13.30;2.13;;;3.80;99.90;;;;;;5093034;28;20451;-57
2023/03/07 02:07:26;;;;;;;7.95;1.98;;;3.80;99.90;;;;;;5092889;28;20046;-57
2023/03/07 02:09:53;;;;;;;11.18;1.70;;;3.70;99.90;;;;;;5093162;28;20398;-57
2023/03/07 02:12:19;;;;;;;16.65;2.38;;;3.60;99.90;;;;;;5092786;28;20537;-58
2023/03/07 02:14:47;;;;;;;9.32;1.92;;;3.60;99.90;;;;;;5093289;28;20356;-57
2023/03/07 02:17:13;;;;;;;12.52;1.50;;;3.50;99.90;;;;;;5093122;28;20063;-57
2023/03/07 02:20:09;;;;;;;12.13;2.05;;;3.50;99.90;;;;;;5091684;28;20044;-57
2023/03/07 02:22:35;;;;;;;13.77;2.88;;;3.40;99.90;;;;;;5093129;28;20120;-57
2023/03/07 02:25:12;;;;;;;14.13;2.30;;;3.40;99.90;;;;;;5092485;28;20119;-57
2023/03/07 02:27:38;;;;;;;10.98;2.42;;;3.40;99.90;;;;;;5092793;28;20401;-57
2023/03/07 02:30:05;;;;;;;13.52;2.08;;;3.40;99.90;;;;;;5092519;28;20040;-57
2023/03/07 02:32:31;;;;;;;18.85;1.77;;;3.40;99.90;;;;;;5092551;28;20073;-57
2023/03/07 02:34:57;;;;;;;13.80;1.85;;;3.50;99.90;;;;;;5091183;28;20044;-58
2023/03/07 02:37:35;;;;;;;16.27;1.55;;;3.40;99.90;;;;;;5092353;28;20420;-57
2023/03/07 02:40:06;;;;;;;17.15;2.03;;;3.30;99.90;;;;;;5092365;28;20036;-57
2023/03/07 02:42:34;;;;;;;12.18;2.13;;;3.40;99.90;;;;;;5092472;28;20075;-57
2023/03/07 02:45:02;;;;;;;8.05;1.48;;;3.50;99.90;;;;;;5092638;28;20469;-57
2023/03/07 02:47:28;;;;;;;12.65;1.73;;;3.40;99.90;;;;;;5092270;28;20044;-57
2023/03/07 02:49:54;;;;;;;11.02;1.88;;;3.30;99.90;;;;;;5092046;28;20065;-57
2023/03/07 02:52:21;;;;;;;15.35;1.85;;;3.30;99.90;;;;;;5092240;28;20036;-57
2023/03/07 02:54:47;;;;;;;9.60;1.10;;;3.30;99.90;;;;;;5092385;28;20401;-57
2023/03/07 02:57:14;;;;;;;22.80;2.42;;;3.30;99.90;;;;;;5092225;28;20032;-57
2023/03/07 02:59:40;;;;;;;14.38;1.73;;;3.20;99.90;;;;;;5092259;28;20035;-57
2023/03/07 03:02:06;;;;;;;11.93;1.67;;;3.30;99.90;;;;;;5092159;28;20070;-57
2023/03/07 03:04:31;;;;;;;11.35;2.40;;;3.20;99.90;;;;;;5092347;28;20362;-57
2023/03/07 03:06:57;;;;;;;12.55;1.60;;;3.30;99.90;;;;;;5092389;28;20107;-57
2023/03/07 03:09:22;;;;;;;10.15;1.80;;;3.20;99.90;;;;;;5092028;28;20456;-57
2023/03/07 03:11:48;;;;;;;12.63;2.03;;;3.20;99.90;;;;;;5092239;28;20470;-58
2023/03/07 03:14:14;;;;;;;9.00;1.40;;;3.20;99.90;;;;;;5091816;28;20059;-57
2023/03/07 03:16:40;;;;;;;8.55;1.23;;;3.20;99.90;;;;;;5091720;28;20036;-57
2023/03/07 03:19:06;;;;;;;9.90;1.60;;;3.20;99.90;;;;;;5091920;28;20040;-57
2023/03/07 03:21:32;;;;;;;20.13;3.08;;;3.20;99.90;;;;;;5092048;28;20411;-57
2023/03/07 03:24:02;;;;;;;13.07;1.48;;;3.20;99.90;;;;;;5092049;28;20082;-57
2023/03/07 03:26:28;;;;;;;11.95;2.67;;;3.10;99.90;;;;;;5092081;28;20209;-57
2023/03/07 03:28:53;;;;;;;14.18;1.88;;;3.10;99.90;;;;;;5092371;28;20070;-57
2023/03/07 03:31:19;;;;;;;10.05;1.90;;;3.10;99.90;;;;;;5089898;28;20405;-57
2023/03/07 03:33:45;;;;;;;9.23;2.08;;;3.20;99.90;;;;;;5090443;28;20050;-57
2023/03/07 03:36:14;;;;;;;9.55;1.70;;;3.10;99.90;;;;;;5091642;28;20431;-57
2023/03/07 03:38:39;;;;;;;12.73;1.48;;;3.10;99.90;;;;;;5092104;28;20047;-57
2023/03/07 03:41:07;;;;;;;8.63;1.40;;;3.20;99.90;;;;;;5091637;28;20035;-57
2023/03/07 03:43:33;;;;;;;13.05;2.00;;;3.10;99.90;;;;;;5091707;28;20485;-57
2023/03/07 03:45:59;;;;;;;12.63;1.50;;;3.10;99.90;;;;;;5091492;28;20066;-57
2023/03/07 03:48:26;;;;;;;8.15;1.23;;;3.10;99.90;;;;;;5091852;28;20517;-57
2023/03/07 03:51:03;;;;;;;7.05;1.60;;;3.00;99.90;;;;;;5091750;28;20071;-57
2023/03/07 03:53:30;;;;;;;7.30;1.30;;;3.00;99.90;;;;;;5091735;28;20048;-58
2023/03/07 03:56:08;;;;;;;12.07;2.20;;;3.00;99.90;;;;;;5092045;28;20416;-57
2023/03/07 03:58:34;;;;;;;9.82;1.45;;;2.90;99.90;;;;;;5091562;28;20036;-57
2023/03/07 04:01:11;;;;;;;9.75;1.90;;;3.00;99.90;;;;;;5091786;28;20039;-57
2023/03/07 04:03:39;;;;;;;7.50;1.25;;;3.00;99.90;;;;;;5091868;28;20072;-57
2023/03/07 04:06:07;;;;;;;11.33;2.13;;;3.00;99.90;;;;;;5091563;28;20059;-57
2023/03/07 04:08:34;;;;;;;10.20;1.58;;;3.00;99.90;;;;;;5091503;28;20040;-57
2023/03/07 04:11:00;;;;;;;11.02;1.95;;;2.90;99.90;;;;;;5091310;28;20044;-57
2023/03/07 04:13:26;;;;;;;6.90;1.42;;;2.90;99.90;;;;;;5091158;28;20059;-57
2023/03/07 04:15:53;;;;;;;7.18;1.13;;;2.90;99.90;;;;;;5089904;28;20073;-57
2023/03/07 04:18:20;;;;;;;10.43;1.65;;;2.90;99.90;;;;;;5091641;28;20048;-57
2023/03/07 04:20:48;;;;;;;7.70;1.30;;;2.90;99.90;;;;;;5093571;28;20043;-57
2023/03/07 04:23:15;;;;;;;10.67;1.67;;;2.80;99.90;;;;;;5095154;28;20173;-57
2023/03/07 04:25:48;;;;;;;8.02;1.38;;;2.90;99.90;;;;;;5094877;28;20123;-57
2023/03/07 04:28:15;;;;;;;11.07;1.50;;;2.80;99.90;;;;;;5095284;28;20374;-57
2023/03/07 04:30:41;;;;;;;6.20;1.38;;;2.80;99.90;;;;;;5095060;28;20039;-57
2023/03/07 04:33:06;;;;;;;12.48;1.63;;;2.80;99.90;;;;;;5094846;28;20432;-57
2023/03/07 04:35:32;;;;;;;8.45;1.88;;;2.90;99.90;;;;;;5094667;28;20389;-57
2023/03/07 04:37:57;;;;;;;7.07;1.40;;;3.00;99.90;;;;;;5094649;28;20055;-57
2023/03/07 04:40:23;;;;;;;7.10;1.95;;;3.00;99.90;;;;;;5095055;28;20075;-57
2023/03/07 04:42:49;;;;;;;12.65;1.83;;;2.90;99.90;;;;;;5094775;28;20495;-57
2023/03/07 04:45:14;;;;;;;6.03;1.65;;;3.00;99.90;;;;;;5095022;28;20040;-57
2023/03/07 04:47:40;;;;;;;8.65;1.73;;;3.10;99.90;;;;;;5094515;28;20036;-57
2023/03/07 04:50:07;;;;;;;10.40;2.55;;;3.00;99.90;;;;;;5094571;28;20075;-57
2023/03/07 04:52:32;;;;;;;17.95;2.17;;;3.00;99.90;;;;;;5094463;28;20040;-57
2023/03/07 04:54:58;;;;;;;11.88;1.63;;;3.00;99.90;;;;;;5094357;28;20055;-57
2023/03/07 04:57:24;;;;;;;12.82;2.25;;;3.00;99.90;;;;;;5094265;28;20036;-57
2023/03/07 04:59:49;;;;;;;6.80;1.20;;;3.00;99.90;;;;;;5094364;28;20071;-57
2023/03/07 05:02:15;;;;;;;13.43;1.38;;;2.90;99.90;;;;;;5093978;28;20038;-57
2023/03/07 05:04:40;;;;;;;12.00;1.50;;;2.90;99.90;;;;;;5094218;28;20036;-57
2023/03/07 05:07:06;;;;;;;10.65;1.35;;;3.00;99.90;;;;;;5092673;28;20101;-57
2023/03/07 05:09:32;;;;;;;10.07;1.65;;;3.00;99.90;;;;;;5094327;28;20036;-57
2023/03/07 05:11:57;;;;;;;7.55;1.50;;;3.00;99.90;;;;;;5094198;28;20093;-57
2023/03/07 05:14:23;;;;;;;9.85;1.50;;;3.00;99.90;;;;;;5093744;28;20113;-57
2023/03/07 05:16:48;;;;;;;14.10;1.50;;;3.10;99.90;;;;;;5093871;28;20055;-57
2023/03/07 05:19:14;;;;;;;11.82;2.15;;;3.10;99.90;;;;;;5094175;28;20078;-57
2023/03/07 05:21:40;;;;;;;8.77;1.30;;;3.10;99.90;;;;;;5094041;28;20050;-57
2023/03/07 05:24:06;;;;;;;9.88;1.83;;;3.10;99.90;;;;;;5094123;28;20079;-57
2023/03/07 05:26:32;;;;;;;7.97;2.03;;;3.10;99.90;;;;;;5093922;28;20508;-57
2023/03/07 05:28:58;;;;;;;8.43;1.40;;;3.10;99.90;;;;;;5093873;28;20036;-57
2023/03/07 05:31:25;;;;;;;14.20;1.63;;;3.10;99.90;;;;;;5093678;28;20553;-57
2023/03/07 05:33:50;;;;;;;9.25;1.30;;;3.10;99.90;;;;;;5092219;28;20520;-57
2023/03/07 05:36:16;;;;;;;11.05;1.33;;;3.20;99.90;;;;;;5093557;28;20032;-56
2023/03/07 05:38:42;;;;;;;12.43;1.88;;;3.20;99.90;;;;;;5093435;28;20085;-57
2023/03/07 05:41:08;;;;;;;9.38;1.50;;;3.20;99.90;;;;;;5093657;28;20043;-57
2023/03/07 05:43:33;;;;;;;10.32;1.40;;;3.10;99.90;;;;;;5093712;28;20417;-57
2023/03/07 05:45:59;;;;;;;12.80;1.88;;;3.10;99.90;;;;;;5093285;28;20044;-56
2023/03/07 05:48:25;;;;;;;7.82;1.67;;;3.10;99.90;;;;;;5093411;28;20043;-57
2023/03/07 05:50:50;;;;;;;10.25;1.42;;;3.20;99.90;;;;;;5093300;28;20055;-57
2023/03/07 05:53:16;;;;;;;9.30;1.25;;;3.10;99.90;;;;;;5093239;28;20040;-56
2023/03/07 05:55:42;;;;;;;12.35;1.98;;;3.10;99.90;;;;;;5093252;28;20039;-57
2023/03/07 05:58:07;;;;;;;6.65;1.38;;;3.10;99.90;;;;;;5093367;28;20077;-57
2023/03/07 06:00:33;;;;;;;24.88;2.17;;;3.20;99.90;;;;;;5093221;28;20036;-57
2023/03/07 06:03:01;;;;;;;8.70;1.48;;;3.10;99.90;;;;;;5091832;28;20055;-57
2023/03/07 06:05:27;;;;;;;4.25;0.85;;;3.10;99.90;;;;;;5093121;28;20045;-57
2023/03/07 06:07:53;;;;;;;6.55;1.45;;;3.10;99.90;;;;;;5092964;28;20047;-56
2023/03/07 06:10:19;;;;;;;7.50;1.75;;;3.10;99.90;;;;;;5093383;28;20063;-57
2023/03/07 06:12:57;;;;;;;9.50;1.40;;;3.10;99.90;;;;;;5093061;28;20454;-57
2023/03/07 06:15:23;;;;;;;8.55;1.20;;;3.10;99.90;;;;;;5093002;28;20080;-56
2023/03/07 06:17:48;;;;;;;6.93;1.33;;;3.10;99.90;;;;;;5092815;28;20064;-57
2023/03/07 06:20:15;;;;;;;8.43;1.42;;;3.10;99.90;;;;;;5092765;28;20036;-57
2023/03/07 06:22:40;;;;;;;7.20;1.52;;;3.00;99.90;;;;;;5091594;28;20044;-57
2023/03/07 06:25:07;;;;;;;11.48;1.42;;;3.00;99.90;;;;;;5092607;28;20119;-57
2023/03/07 06:27:34;;;;;;;4.72;1.15;;;3.10;99.90;;;;;;5092752;28;20043;-57
2023/03/07 06:30:00;;;;;;;6.20;1.67;;;3.10;99.90;;;;;;5091408;28;20051;-57
2023/03/07 06:32:26;;;;;;;6.38;1.42;;;3.20;99.90;;;;;;5092413;28;20036;-57
2023/03/07 06:34:52;;;;;;;9.35;1.40;;;3.10;99.90;;;;;;5092596;28;20396;-56
2023/03/07 06:37:17;;;;;;;8.10;1.70;;;3.10;99.90;;;;;;5092615;28;20039;-57
2023/03/07 06:39:44;;;;;;;5.05;1.10;;;3.10;99.90;;;;;;5092527;28;20516;-57
2023/03/07 06:42:09;;;;;;;6.20;1.30;;;3.10;99.90;;;;;;5092819;28;20514;-57
2023/03/07 06:44:35;;;;;;;5.50;1.52;;;3.20;99.90;;;;;;5092590;28;20047;-57
2023/03/07 06:47:01;;;;;;;5.28;1.15;;;3.10;99.90;;;;;;5092411;28;20032;-56
2023/03/07 06:49:26;;;;;;;5.68;1.35;;;3.10;99.90;;;;;;5092196;28;20031;-57
2023/03/07 06:51:52;;;;;;;4.53;0.88;;;3.10;99.90;;;;;;5092521;28;20039;-56
2023/03/07 06:54:17;;;;;;;10.02;1.40;;;3.10;99.90;;;;;;5092208;28;20054;-56
2023/03/07 06:56:43;;;;;;;6.15;1.38;;;3.10;99.90;;;;;;5092389;28;20028;-57
2023/03/07 06:59:10;;;;;;;8.07;1.15;;;3.20;99.90;;;;;;5092093;28;20035;-57
2023/03/07 07:01:36;;;;;;;7.47;1.30;;;3.80;99.90;;;;;;5092345;28;20040;-56
2023/03/07 07:04:02;;;;;;;6.22;1.40;;;3.20;99.90;;;;;;5091774;28;20036;-56
2023/03/07 07:06:28;;;;;;;5.53;1.02;;;3.30;99.90;;;;;;5090782;28;20059;-57
2023/03/07 07:08:55;;;;;;;7.63;1.02;;;3.20;99.90;;;;;;5091832;28;20036;-57
2023/03/07 07:11:22;;;;;;;5.82;1.02;;;3.30;99.90;;;;;;5092066;28;20081;-56
2023/03/07 07:13:49;;;;;;;6.05;0.85;;;3.30;99.90;;;;;;5090453;28;20688;-56
2023/03/07 07:16:15;;;;;;;3.97;1.00;;;3.30;99.90;;;;;;5092011;28;20051;-57
2023/03/07 07:18:41;;;;;;;4.75;0.90;;;3.30;99.90;;;;;;5093510;28;20036;-57
2023/03/07 07:21:07;;;;;;;5.18;0.82;;;3.40;99.90;;;;;;5112377;28;20054;-56
2023/03/07 07:23:32;;;;;;;6.35;1.10;;;3.40;99.90;;;;;;5112519;28;20445;-57
2023/03/07 07:25:58;;;;;;;5.25;1.00;;;3.30;99.90;;;;;;5112114;28;20477;-56
2023/03/07 07:28:23;;;;;;;4.43;0.95;;;3.30;99.90;;;;;;5110882;28;20051;-57
2023/03/07 07:30:49;;;;;;;5.97;1.52;;;3.30;99.90;;;;;;5111937;28;20092;-56
2023/03/07 07:33:15;;;;;;;6.78;1.10;;;3.30;99.90;;;;;;5112387;28;20411;-56
2023/03/07 07:35:45;;;;;;;7.30;1.30;;;3.30;99.90;;;;;;5110916;28;20073;-56
2023/03/07 07:38:12;;;;;;;5.80;0.98;;;3.30;99.90;;;;;;5112360;28;20031;-56
2023/03/07 07:40:38;;;;;;;5.45;1.45;;;3.30;99.90;;;;;;5112334;28;20086;-57
2023/03/07 07:43:04;;;;;;;8.20;1.63;;;3.30;99.90;;;;;;5112176;28;20058;-56
2023/03/07 07:45:30;;;;;;;8.45;0.95;;;3.30;99.90;;;;;;5112244;28;20118;-57
2023/03/07 07:47:55;;;;;;;7.70;1.17;;;3.30;99.90;;;;;;5110063;28;20097;-56
2023/03/07 07:50:21;;;;;;;6.68;1.15;;;3.30;99.90;;;;;;5111982;28;20035;-57
2023/03/07 07:52:48;;;;;;;6.43;0.88;;;3.30;99.90;;;;;;5112065;28;20401;-57
2023/03/07 07:55:14;;;;;;;7.88;2.17;;;3.30;99.90;;;;;;5113130;28;20032;-57
2023/03/07 07:57:41;;;;;;;6.80;1.13;;;3.40;99.90;;;;;;5116111;28;20046;-57
2023/03/07 08:00:09;;;;;;;6.22;1.17;;;3.40;99.90;;;;;;5115931;28;20119;-57
2023/03/07 08:02:35;;;;;;;12.45;1.13;;;3.40;99.90;;;;;;5115710;28;20051;-57
2023/03/07 08:05:03;;;;;;;10.82;1.73;;;3.50;99.90;;;;;;5116052;27;20110;-56
2023/03/07 08:07:29;;;;;;;6.82;1.00;;;3.50;99.90;;;;;;5115801;28;20043;-57
2023/03/07 08:09:54;;;;;;;7.65;1.27;;;3.50;99.90;;;;;;5115714;28;20499;-57
2023/03/07 08:12:20;;;;;;;6.78;1.17;;;3.50;99.90;;;;;;5115575;28;20036;-56
2023/03/07 08:14:46;;;;;;;10.43;1.27;;;3.60;99.90;;;;;;5115328;28;20160;-57
2023/03/07 08:17:11;;;;;;;6.78;1.13;;;3.70;99.90;;;;;;5115442;28;20032;-57
2023/03/07 08:19:37;;;;;;;12.00;1.60;;;3.70;99.90;;;;;;5115571;28;20039;-57
2023/03/07 08:22:03;;;;;;;5.50;0.90;;;3.70;99.90;;;;;;5115425;28;20036;-56
2023/03/07 08:24:31;;;;;;;4.63;0.82;;;3.80;99.90;;;;;;5115460;28;20519;-56
2023/03/07 08:26:57;;;;;;;4.97;0.98;;;3.80;99.90;;;;;;5115475;28;20043;-57
2023/03/07 08:29:22;;;;;;;3.95;0.98;;;3.80;99.90;;;;;;5115293;28;20039;-57
2023/03/07 08:31:50;;;;;;;5.70;1.00;;;3.80;99.90;;;;;;5115353;28;20048;-57
2023/03/07 08:34:17;;;;;;;4.72;0.93;;;3.80;99.90;;;;;;5115197;28;20040;-57
2023/03/07 08:36:42;;;;;;;7.10;1.30;;;3.80;99.90;;;;;;5115234;28;20426;-57
2023/03/07 08:39:08;;;;;;;7.32;1.13;;;3.80;99.90;;;;;;5115159;28;20086;-57
2023/03/07 08:41:34;;;;;;;9.05;1.70;;;3.80;99.90;;;;;;5115263;28;20071;-56
2023/03/07 08:43:59;;;;;;;5.50;1.00;;;3.80;99.90;;;;;;5114885;28;20122;-57
2023/03/07 08:46:25;;;;;;;8.02;1.23;;;3.70;99.90;;;;;;5115370;28;20122;-57
2023/03/07 08:48:50;;;;;;;9.38;1.13;;;3.70;99.90;;;;;;5115323;28;20456;-57
2023/03/07 08:51:17;;;;;;;6.68;1.50;;;3.70;99.90;;;;;;5115095;28;20126;-56
2023/03/07 08:53:43;;;;;;;8.48;1.05;;;3.70;99.90;;;;;;5114769;28;20039;-57
2023/03/07 08:56:11;;;;;;;2.20;0.75;;;3.70;99.90;;;;;;5114671;28;20043;-56
2023/03/07 08:58:37;;;;;;;6.15;1.25;;;3.70;99.90;;;;;;5114738;28;20557;-56
2023/03/07 09:01:04;;;;;;;5.72;1.20;;;3.80;99.90;;;;;;5114873;28;20040;-57
2023/03/07 09:03:30;;;;;;;10.85;1.75;;;3.70;99.90;;;;;;5114698;28;20040;-56
2023/03/07 09:05:55;;;;;;;4.82;0.93;;;3.80;99.90;;;;;;5114435;28;20451;-56
2023/03/07 09:08:21;;;;;;;6.28;1.00;;;3.70;99.90;;;;;;5114618;28;20071;-56
2023/03/07 09:10:47;;;;;;;5.15;1.02;;;3.70;99.90;;;;;;5114425;28;20036;-57
2023/03/07 09:13:13;;;;;;;6.80;0.95;;;3.70;99.90;;;;;;5114407;28;20409;-56
2023/03/07 09:15:39;;;;;;;8.95;1.00;;;3.70;99.90;;;;;;5114751;28;20044;-56
2023/03/07 09:18:06;;;;;;;11.10;2.03;;;3.70;99.90;;;;;;5114559;28;20051;-56
2023/03/07 09:20:31;;;;;;;3.20;1.08;;;3.70;99.90;;;;;;5114468;28;20035;-56
2023/03/07 09:22:57;;;;;;;2.45;0.70;;;3.60;99.90;;;;;;5114290;28;20384;-56
2023/03/07 09:25:23;;;;;;;4.13;1.05;;;3.60;99.90;;;;;;5113994;28;20039;-56
2023/03/07 09:27:49;;;;;;;8.73;1.00;;;3.60;99.90;;;;;;5114478;28;20047;-56
2023/03/07 09:30:15;;;;;;;5.82;1.10;;;3.60;99.90;;;;;;5114648;28;20043;-56
2023/03/07 09:32:41;;;;;;;7.03;1.05;;;3.60;99.90;;;;;;5114224;28;20044;-56
2023/03/07 09:35:07;;;;;;;8.50;1.15;;;3.60;99.90;;;;;;5114160;28;20035;-56
2023/03/07 09:37:33;;;;;;;6.95;1.40;;;3.70;99.90;;;;;;5113144;28;20048;-56
2023/03/07 09:39:59;;;;;;;10.23;1.63;;;3.70;99.90;;;;;;5113851;28;20047;-56
2023/03/07 09:42:39;;;;;;;9.88;1.33;;;3.70;99.90;;;;;;5114224;28;20074;-56
2023/03/07 09:45:22;;;;;;;6.40;1.02;;;3.70;99.90;;;;;;5114108;28;20046;-56
2023/03/07 09:48:19;;;;;;;9.00;1.38;;;3.60;99.90;;;;;;5113871;28;20036;-57
2023/03/07 09:50:48;;;;;;;10.50;1.33;;;3.70;99.90;;;;;;5113672;28;20071;-56
2023/03/07 09:53:38;;;;;;;7.20;1.42;;;3.70;99.90;;;;;;5101288;28;20052;-56
2023/03/07 09:56:09;;;;;;;9.85;1.55;;;3.70;99.90;;;;;;5093530;28;20039;-56
2023/03/07 09:58:40;;;;;;;6.35;0.93;;;3.70;99.90;;;;;;5108137;28;20035;-56
2023/03/07 10:01:11;;;;;;;6.93;1.20;;;3.80;99.90;;;;;;5113332;28;20058;-56
2023/03/07 10:03:39;;;;;;;12.77;1.70;;;3.90;99.90;;;;;;5104001;28;20089;-57
2023/03/07 10:06:18;;;;;;;9.27;1.57;;;3.90;99.90;;;;;;5113427;28;20039;-56
2023/03/07 10:08:44;;;;;;;9.00;1.15;;;4.00;99.90;;;;;;5102856;28;20276;-56
2023/03/07 10:11:35;;;;;;;10.02;1.45;;;4.10;99.90;;;;;;5113366;28;20084;-56
2023/03/07 10:14:33;;;;;;;6.07;1.50;;;4.10;99.90;;;;;;5067212;28;20083;-56
2023/03/07 10:17:34;;;;;;;9.65;1.27;;;4.20;99.90;;;;;;5113038;28;20122;-56
2023/03/07 10:20:28;;;;;;;6.82;1.48;;;4.40;99.90;;;;;;5086027;28;20036;-56
2023/03/07 10:23:04;;;;;;;9.95;1.40;;;4.50;99.90;;;;;;5097129;28;20046;-56
2023/03/07 10:25:36;;;;;;;11.43;1.55;;;4.50;99.90;;;;;;5101123;28;20089;-56
2023/03/07 10:28:22;;;;;;;7.00;1.13;;;4.60;99.90;;;;;;5096874;28;20096;-56
2023/03/07 10:30:57;;;;;;;5.47;1.50;;;4.60;99.90;;;;;;5104006;28;20024;-56
2023/03/07 10:33:23;;;;;;;8.70;1.50;;;4.60;99.90;;;;;;5092476;28;20469;-56
2023/03/07 10:36:06;;;;;;;7.72;1.63;;;4.70;99.90;;;;;;5092683;28;20036;-56
2023/03/07 10:38:47;;;;;;;5.55;1.77;;;4.80;99.90;;;;;;5092361;28;20044;-56
2023/03/07 10:41:20;;;;;;;6.30;1.02;;;4.80;99.90;;;;;;5092634;28;20094;-56
2023/03/07 10:43:48;;;;;;;10.45;1.50;;;4.90;99.90;;;;;;5092243;28;20043;-56
2023/03/07 10:46:34;;;;;;;8.05;1.42;;;4.90;99.90;;;;;;5092490;28;20048;-56
2023/03/07 10:49:05;;;;;;;10.98;1.63;;;4.90;99.90;;;;;;5092258;28;20040;-56
2023/03/07 10:51:37;;;;;;;10.27;1.45;;;5.00;99.90;;;;;;5106219;28;20056;-56
2023/03/07 10:54:15;;;;;;;8.15;1.40;;;5.00;99.90;;;;;;5112515;28;20071;-56
2023/03/07 10:57:12;;;;;;;10.27;1.50;;;5.10;99.90;;;;;;5112555;28;20388;-56
2023/03/07 10:59:48;;;;;;;6.43;1.10;;;5.10;99.90;;;;;;5112656;28;20035;-56
2023/03/07 11:02:30;;;;;;;4.75;1.58;;;5.10;99.90;;;;;;5111358;28;20122;-56
2023/03/07 11:04:56;;;;;;;5.50;1.52;;;5.10;99.90;;;;;;5112115;28;20046;-56
2023/03/07 11:07:35;;;;;;;10.10;1.40;;;5.20;99.90;;;;;;5112363;28;20028;-56
2023/03/07 11:10:29;;;;;;;5.38;1.38;;;5.30;99.90;;;;;;5112509;28;20040;-56
2023/03/07 11:12:55;;;;;;;8.95;1.80;;;5.30;99.90;;;;;;5112000;28;20075;-56
2023/03/07 11:15:23;;;;;;;4.95;1.67;;;5.30;99.90;;;;;;5112367;28;20516;-56
2023/03/07 11:17:50;;;;;;;6.90;1.80;;;5.40;99.90;;;;;;5112663;28;20043;-56
2023/03/07 11:20:25;;;;;;;7.65;1.42;;;5.50;99.90;;;;;;5112172;28;20047;-56
2023/03/07 11:23:17;;;;;;;5.63;1.52;;;5.50;99.90;;;;;;5112334;28;20054;-57
2023/03/07 11:25:43;;;;;;;7.32;1.83;;;5.70;99.90;;;;;;5112204;28;20039;-56
2023/03/07 11:28:32;;;;;;;10.85;1.77;;;6.00;99.90;;;;;;5112238;28;20039;-56
2023/03/07 11:31:06;;;;;;;9.27;1.90;;;6.40;99.90;;;;;;5116491;28;20047;-57
2023/03/07 11:33:52;;;;;;;9.65;1.58;;;6.60;99.90;;;;;;5115269;28;20063;-57
2023/03/07 11:36:31;;;;;;;8.68;1.85;;;6.00;99.90;;;;;;5116370;28;20036;-56
2023/03/07 11:39:13;;;;;;;9.63;2.00;;;5.50;99.90;;;;;;5116584;28;20039;-56
2023/03/07 11:41:44;;;;;;;8.77;1.67;;;5.30;99.90;;;;;;5116488;28;20071;-57
2023/03/07 11:44:31;;;;;;;10.45;1.60;;;5.00;99.90;;;;;;5116388;28;20042;-56
2023/03/07 11:47:23;;;;;;;11.07;1.42;;;4.80;99.90;;;;;;5116142;28;20068;-56
2023/03/07 11:50:15;;;;;;;7.13;1.25;;;4.70;99.90;;;;;;5115218;28;20079;-56
2023/03/07 11:53:17;;;;;;;18.77;2.15;;;4.60;99.90;;;;;;5096475;28;20036;-56
2023/03/07 11:56:21;;;;;;;9.00;1.83;;;4.40;99.90;;;;;;5095653;28;20493;-56
2023/03/07 11:58:58;;;;;;;7.18;0.90;;;4.40;99.90;;;;;;5095745;28;20107;-57
2023/03/07 12:01:45;;;;;;;11.07;1.50;;;4.70;99.90;;;;;;5095532;28;20370;-57
2023/03/07 12:04:37;;;;;;;10.30;1.70;;;5.10;99.90;;;;;;5095475;28;20493;-57
2023/03/07 12:07:35;;;;;;;12.48;1.95;;;5.50;99.90;;;;;;5095179;28;20477;-57
2023/03/07 12:10:19;;;;;;;8.07;1.42;;;6.00;99.90;;;;;;5095328;28;20044;-56
2023/03/07 12:13:12;;;;;;;5.85;1.25;;;6.40;99.90;;;;;;5095169;28;20040;-56
2023/03/07 12:15:58;;;;;;;5.40;1.00;;;6.80;99.90;;;;;;5095350;28;20432;-57
2023/03/07 12:18:30;;;;;;;5.68;1.25;;;7.00;99.90;;;;;;5095059;28;20047;-57
2023/03/07 12:21:25;;;;;;;10.05;1.65;;;7.30;99.90;;;;;;5098284;28;20036;-58
2023/03/07 12:24:05;;;;;;;7.18;1.30;;;7.60;99.90;;;;;;5115548;28;20043;-57
2023/03/07 12:26:54;;;;;;;8.20;1.42;;;8.20;99.90;;;;;;5115471;27;20381;-57
2023/03/07 12:29:59;;;;;;;9.88;1.10;;;8.40;99.90;;;;;;5116070;28;20427;-57
2023/03/07 12:32:26;;;;;;;9.00;2.78;;;8.10;99.90;;;;;;5114632;28;20404;-57
2023/03/07 12:35:16;;;;;;;10.05;2.00;;;8.30;99.90;;;;;;5115231;28;20039;-57
2023/03/07 12:37:50;;;;;;;2.30;0.80;;;8.40;99.90;;;;;;5115429;28;20032;-56
2023/03/07 12:40:20;;;;;;;4.78;1.50;;;8.00;99.90;;;;;;5114973;28;20034;-57
2023/03/07 12:43:11;;;;;;;8.18;1.40;;;7.90;99.90;;;;;;5115024;28;20485;-56
2023/03/07 12:45:47;;;;;;;5.88;1.27;;;7.70;99.90;;;;;;5114977;28;20040;-56
2023/03/07 12:48:23;;;;;;;4.18;0.65;;;7.30;99.90;;;;;;5115299;28;20136;-56
2023/03/07 12:51:05;;;;;;;4.15;0.80;;;7.00;99.90;;;;;;5115021;28;20043;-57
2023/03/07 12:53:42;;;;;;;8.93;1.50;;;6.90;99.90;;;;;;5115124;28;20047;-56
2023/03/07 12:56:16;;;;;;;6.95;1.13;;;7.10;99.90;;;;;;5114701;28;20141;-56
2023/03/07 12:59:13;;;;;;;7.20;0.90;;;7.20;99.90;;;;;;5114842;28;20040;-57
2023/03/07 13:02:03;;;;;;;8.30;1.00;;;7.40;99.90;;;;;;5032079;28;20446;-57
2023/03/07 13:04:34;;;;;;;7.60;1.38;;;8.00;99.90;;;;;;5015682;28;20549;-57
2023/03/07 13:07:07;;;;;;;9.63;1.23;;;8.00;99.90;;;;;;5032032;28;20156;-57
2023/03/07 13:09:35;;;;;;;6.72;1.48;;;7.70;99.90;;;;;;5032032;28;20041;-56